Time;durP1;ratioP1;P1;durP2;ratioP2;P2;SDS_P1;SDS_P2;PMS_P1;PMS_P2;Temp;Humidity;BMP_temperature;BMP_pressure;BME280_temperature;BME280_humidity;BME280_pressure;Samples;Min_cycle;Max_cycle;Signal;HPM_P1;HPM_P2
2023/09/24 00:01:04;;;;;;;;;;;;;;;11.13;100.00;97199.97;5106547;28;19949;-70
2023/09/24 00:03:31;;;;;;;;;;;;;;;11.11;100.00;97202.00;5105150;28;19957;-70
2023/09/24 00:05:59;;;;;;;;;;;;;;;11.07;100.00;97197.34;5105723;28;19932;-70
2023/09/24 00:08:24;;;;;;;;;;;;;;;11.03;100.00;97214.50;5106488;28;19938;-70
2023/09/24 00:10:52;;;;;;;;;;;;;;;10.98;100.00;97207.22;5105887;28;19960;-70
2023/09/24 00:13:19;;;;;;;;;;;;;;;10.94;100.00;97212.09;5105577;28;19931;-69
2023/09/24 00:15:45;;;;;;;;;;;;;;;10.91;100.00;97219.53;5105349;28;19962;-70
2023/09/24 00:18:11;;;;;;;;;;;;;;;10.87;100.00;97213.06;5104916;28;19944;-75
2023/09/24 00:20:37;;;;;;;;;;;;;;;10.84;100.00;97218.75;5105383;28;20228;-69
2023/09/24 00:23:05;;;;;;;;;;;;;;;10.83;100.00;97214.50;5104853;28;19946;-69
2023/09/24 00:25:31;;;;;;;;;;;;;;;10.79;100.00;97216.69;5104245;28;19932;-69
2023/09/24 00:27:57;;;;;;;;;;;;;;;10.77;100.00;97210.84;5105762;28;19934;-69
2023/09/24 00:30:23;;;;;;;;;;;;;;;10.75;100.00;97218.94;5105259;28;19957;-69
2023/09/24 00:32:49;;;;;;;;;;;;;;;10.71;100.00;97214.28;5106018;28;20094;-70
2023/09/24 00:35:16;;;;;;;;;;;;;;;10.68;100.00;97214.66;5105098;28;19959;-71
2023/09/24 00:37:42;;;;;;;;;;;;;;;10.64;100.00;97214.25;5105683;28;19960;-73
2023/09/24 00:40:11;;;;;;;;;;;;;;;10.61;100.00;97222.53;5105086;28;20001;-73
2023/09/24 00:42:37;;;;;;;;;;;;;;;10.58;100.00;97220.28;5104948;28;19952;-74
2023/09/24 00:45:10;;;;;;;;;;;;;;;10.58;100.00;97222.91;5105223;28;19939;-73
2023/09/24 00:47:37;;;;;;;;;;;;;;;10.56;100.00;97227.53;5104943;28;19933;-74
2023/09/24 00:50:04;;;;;;;;;;;;;;;10.54;100.00;97227.75;5105478;28;19938;-74
2023/09/24 00:52:30;;;;;;;;;;;;;;;10.52;100.00;97226.31;5105367;28;19939;-73
2023/09/24 00:54:57;;;;;;;;;;;;;;;10.49;100.00;97224.91;5104797;28;19934;-71
2023/09/24 00:57:23;;;;;;;;;;;;;;;10.45;100.00;97220.28;5104821;28;19936;-69
2023/09/24 00:59:49;;;;;;;;;;;;;;;10.41;100.00;97229.53;5104768;28;19929;-69
2023/09/24 01:02:16;;;;;;;;;;;;;;;10.39;100.00;97224.47;5104704;28;19958;-70
2023/09/24 01:04:44;;;;;;;;;;;;;;;10.34;100.00;97224.28;5104635;28;20125;-69
2023/09/24 01:07:10;;;;;;;;;;;;;;;10.32;100.00;97227.09;5105122;28;19934;-69
2023/09/24 01:09:35;;;;;;;;;;;;;;;10.31;100.00;97237.75;5104591;28;20004;-69
2023/09/24 01:12:04;;;;;;;;;;;;;;;10.28;100.00;97233.69;5104588;28;19937;-74
2023/09/24 01:14:29;;;;;;;;;;;;;;;10.24;100.00;97236.91;5104204;28;20240;-69
2023/09/24 01:16:55;;;;;;;;;;;;;;;10.19;100.00;97231.47;5104294;28;19963;-68
2023/09/24 01:19:23;;;;;;;;;;;;;;;10.15;100.00;97238.91;5105265;28;19942;-68
2023/09/24 01:21:50;;;;;;;;;;;;;;;10.11;100.00;97235.03;5104365;28;19965;-68
2023/09/24 01:24:16;;;;;;;;;;;;;;;10.09;100.00;97239.66;5104394;28;19946;-69
2023/09/24 01:26:44;;;;;;;;;;;;;;;10.07;100.00;97246.91;5104399;28;19929;-69
2023/09/24 01:29:11;;;;;;;;;;;;;;;10.05;100.00;97239.25;5104639;28;19936;-68
2023/09/24 01:31:38;;;;;;;;;;;;;;;10.04;100.00;97232.41;5104398;28;19957;-69
2023/09/24 01:34:05;;;;;;;;;;;;;;;10.03;100.00;97232.59;5103190;28;19938;-71
2023/09/24 01:36:32;;;;;;;;;;;;;;;10.01;100.00;97230.16;5104331;28;19939;-71
2023/09/24 01:38:58;;;;;;;;;;;;;;;9.98;100.00;97227.94;5105105;28;20120;-71
2023/09/24 01:41:25;;;;;;;;;;;;;;;9.96;100.00;97227.31;5105048;28;19949;-71
2023/09/24 01:43:52;;;;;;;;;;;;;;;9.92;100.00;97231.31;5105109;28;19941;-72
2023/09/24 01:46:20;;;;;;;;;;;;;;;9.90;100.00;97233.34;5103688;28;19945;-71
2023/09/24 01:48:49;;;;;;;;;;;;;;;9.88;100.00;97230.91;5104253;28;19936;-77
2023/09/24 01:51:15;;;;;;;;;;;;;;;9.86;100.00;97229.47;5104212;28;19960;-70
2023/09/24 01:53:42;;;;;;;;;;;;;;;9.84;100.00;97234.91;5103811;28;20232;-70
2023/09/24 01:56:08;;;;;;;;;;;;;;;9.82;100.00;97241.34;5104147;28;19939;-69
2023/09/24 01:58:37;;;;;;;;;;;;;;;9.78;100.00;97232.25;5102981;28;19930;-71
2023/09/24 02:01:03;;;;;;;;;;;;;;;9.78;100.00;97237.50;5104058;28;20120;-70
2023/09/24 02:03:29;;;;;;;;;;;;;;;9.76;100.00;97245.53;5104088;28;19941;-70
2023/09/24 02:05:55;;;;;;;;;;;;;;;9.74;100.00;97232.66;5104025;28;19937;-69
2023/09/24 02:08:21;;;;;;;;;;;;;;;9.72;100.00;97244.31;5104873;28;19944;-68
2023/09/24 02:10:47;;;;;;;;;;;;;;;9.71;100.00;97247.94;5104067;28;19940;-71
2023/09/24 02:13:14;;;;;;;;;;;;;;;9.67;100.00;97242.28;5103948;28;20128;-70
2023/09/24 02:15:43;;;;;;;;;;;;;;;9.67;100.00;97246.69;5103797;28;19964;-71
2023/09/24 02:18:09;;;;;;;;;;;;;;;9.65;100.00;97246.09;5103884;28;20229;-70
2023/09/24 02:20:38;;;;;;;;;;;;;;;9.63;100.00;97245.47;5104414;28;19941;-70
2023/09/24 02:23:04;;;;;;;;;;;;;;;9.60;100.00;97254.53;5103771;28;19956;-71
2023/09/24 02:25:35;;;;;;;;;;;;;;;9.58;100.00;97253.91;5104699;28;19935;-71
2023/09/24 02:28:02;;;;;;;;;;;;;;;9.54;100.00;97256.09;5102722;28;19937;-70
2023/09/24 02:30:29;;;;;;;;;;;;;;;9.51;100.00;97268.75;5102746;28;19947;-69
2023/09/24 02:32:59;;;;;;;;;;;;;;;9.49;100.00;97260.28;5103742;28;19923;-69
2023/09/24 02:35:26;;;;;;;;;;;;;;;9.47;100.00;97262.25;5103706;28;19957;-69
2023/09/24 02:37:52;;;;;;;;;;;;;;;9.44;100.00;97270.50;5104553;28;19926;-70
2023/09/24 02:40:28;;;;;;;;;;;;;;;9.42;100.00;97262.03;5105816;28;19929;-69
2023/09/24 02:42:56;;;;;;;;;;;;;;;9.38;100.00;97264.22;5107824;28;20111;-69
2023/09/24 02:45:22;;;;;;;;;;;;;;;9.37;100.00;97261.81;5108097;28;19939;-69
2023/09/24 02:47:49;;;;;;;;;;;;;;;9.35;100.00;97260.19;5107247;28;20234;-74
2023/09/24 02:50:22;;;;;;;;;;;;;;;9.34;100.00;97257.75;5107122;28;19937;-75
2023/09/24 02:52:48;;;;;;;;;;;;;;;9.31;100.00;97261.56;5107139;28;19938;-74
2023/09/24 02:55:15;;;;;;;;;;;;;;;9.30;100.00;97262.56;5107064;28;19939;-74
2023/09/24 02:57:42;;;;;;;;;;;;;;;9.26;100.00;97258.72;5107281;28;20093;-74
2023/09/24 03:00:14;;;;;;;;;;;;;;;9.24;100.00;97265.94;5107563;28;19939;-74
2023/09/24 03:02:41;;;;;;;;;;;;;;;9.21;100.00;97270.72;5106422;28;19960;-72
2023/09/24 03:05:08;;;;;;;;;;;;;;;9.18;100.00;97268.50;5106891;28;19945;-77
2023/09/24 03:07:36;;;;;;;;;;;;;;;9.15;100.00;97277.53;5107124;28;20037;-77
2023/09/24 03:10:04;;;;;;;;;;;;;;;9.11;100.00;97279.72;5107297;28;19940;-77
2023/09/24 03:12:31;;;;;;;;;;;;;;;9.10;100.00;97285.13;5107300;28;19944;-78
2023/09/24 03:14:57;;;;;;;;;;;;;;;9.05;100.00;97293.56;5106913;28;19963;-77
2023/09/24 03:17:23;;;;;;;;;;;;;;;9.02;100.00;97293.91;5106560;28;19944;-76
2023/09/24 03:19:49;;;;;;;;;;;;;;;9.00;100.00;97293.28;5106518;28;20014;-78
2023/09/24 03:22:15;;;;;;;;;;;;;;;9.00;100.00;97295.91;5106982;28;20231;-71
2023/09/24 03:24:41;;;;;;;;;;;;;;;9.00;100.00;97290.66;5105378;28;19943;-71
2023/09/24 03:27:07;;;;;;;;;;;;;;;9.02;100.00;97290.50;5106875;28;19940;-71
2023/09/24 03:29:33;;;;;;;;;;;;;;;9.03;100.00;97292.09;5106154;28;19937;-71
2023/09/24 03:31:59;;;;;;;;;;;;;;;9.05;100.00;97300.56;5106311;28;19943;-71
2023/09/24 03:34:25;;;;;;;;;;;;;;;9.06;100.00;97304.81;5106280;28;20170;-71
2023/09/24 03:36:50;;;;;;;;;;;;;;;9.06;100.00;97305.63;5107059;28;19932;-71
2023/09/24 03:39:16;;;;;;;;;;;;;;;9.07;100.00;97304.66;5106761;28;19934;-70
2023/09/24 03:41:42;;;;;;;;;;;;;;;9.10;100.00;97311.31;5106080;28;19952;-69
2023/09/24 03:44:08;;;;;;;;;;;;;;;9.04;100.00;97310.22;5106088;28;19933;-69
2023/09/24 03:46:34;;;;;;;;;;;;;;;8.98;100.00;97310.19;5106874;28;19963;-70
2023/09/24 03:49:00;;;;;;;;;;;;;;;8.99;100.00;97315.22;5106044;28;20119;-69
2023/09/24 03:51:26;;;;;;;;;;;;;;;9.03;100.00;97315.66;5106651;28;19939;-70
2023/09/24 03:53:52;;;;;;;;;;;;;;;9.06;100.00;97310.84;5106421;28;19937;-71
2023/09/24 03:56:17;;;;;;;;;;;;;;;9.07;100.00;97316.91;5106718;28;19940;-70
2023/09/24 03:58:43;;;;;;;;;;;;;;;9.05;100.00;97318.88;5106418;28;19935;-70
2023/09/24 04:01:10;;;;;;;;;;;;;;;9.05;100.00;97326.75;5105771;28;19934;-71
2023/09/24 04:03:37;;;;;;;;;;;;;;;9.05;100.00;97330.19;5106478;28;20086;-71
2023/09/24 04:06:10;;;;;;;;;;;;;;;9.05;100.00;97332.81;5105687;28;19947;-70
2023/09/24 04:08:36;;;;;;;;;;;;;;;9.08;100.00;97339.47;5106189;28;19958;-71
2023/09/24 04:11:06;;;;;;;;;;;;;;;9.09;100.00;97341.06;5105589;28;20127;-72
2023/09/24 04:13:33;;;;;;;;;;;;;;;9.09;100.00;97344.53;5105490;28;19960;-71
2023/09/24 04:16:12;;;;;;;;;;;;;;;9.08;100.00;97348.13;5105307;28;19969;-68
2023/09/24 04:18:39;;;;;;;;;;;;;;;9.08;100.00;97339.47;5106046;28;19944;-70
2023/09/24 04:21:13;;;;;;;;;;;;;;;9.09;100.00;97341.91;5105348;28;19929;-71
2023/09/24 04:23:38;;;;;;;;;;;;;;;9.09;100.00;97341.91;5105880;28;20266;-71
2023/09/24 04:26:04;;;;;;;;;;;;;;;9.08;100.00;97348.13;5105774;28;19939;-71
2023/09/24 04:28:30;;;;;;;;;;;;;;;9.08;100.00;97360.41;5105256;28;19939;-71
2023/09/24 04:30:56;;;;;;;;;;;;;;;9.06;100.00;97360.56;5106008;28;19977;-70
2023/09/24 04:33:22;;;;;;;;;;;;;;;9.08;100.00;97370.88;5105180;28;19937;-71
2023/09/24 04:35:48;;;;;;;;;;;;;;;9.07;100.00;97358.75;5105925;28;19950;-69
2023/09/24 04:38:16;;;;;;;;;;;;;;;9.08;100.00;97363.81;5104009;28;19960;-69
2023/09/24 04:40:42;;;;;;;;;;;;;;;9.09;100.00;97362.84;5105010;28;19947;-70
2023/09/24 04:43:08;;;;;;;;;;;;;;;9.11;100.00;97366.09;5105727;28;20157;-69
2023/09/24 04:45:35;;;;;;;;;;;;;;;9.11;100.00;97363.47;5104982;28;19934;-69
2023/09/24 04:48:00;;;;;;;;;;;;;;;9.13;100.00;97374.56;5103855;28;19936;-70
2023/09/24 04:50:26;;;;;;;;;;;;;;;9.13;100.00;97361.47;5105694;28;19944;-69
2023/09/24 04:52:54;;;;;;;;;;;;;;;9.14;100.00;97365.69;5104854;28;19931;-71
2023/09/24 04:55:20;;;;;;;;;;;;;;;9.13;100.00;97369.31;5105608;28;19931;-69
2023/09/24 04:57:46;;;;;;;;;;;;;;;9.11;100.00;97376.53;5105330;28;19938;-69
2023/09/24 05:00:14;;;;;;;;;;;;;;;9.10;100.00;97374.91;5104776;28;19953;-69
2023/09/24 05:02:40;;;;;;;;;;;;;;;9.10;100.00;97381.97;5104139;28;19956;-69
2023/09/24 05:05:06;;;;;;;;;;;;;;;9.07;100.00;97390.16;5104929;28;19942;-69
2023/09/24 05:07:32;;;;;;;;;;;;;;;9.04;100.00;97391.34;5104607;28;19940;-68
2023/09/24 05:09:58;;;;;;;;;;;;;;;9.00;100.00;97384.84;5104546;28;19974;-69
2023/09/24 05:12:24;;;;;;;;;;;;;;;8.97;100.00;97387.84;5105073;28;19932;-70
2023/09/24 05:14:50;;;;;;;;;;;;;;;8.93;100.00;97394.44;5104384;28;19985;-74
2023/09/24 05:17:16;;;;;;;;;;;;;;;8.88;100.00;97389.78;5104508;28;20005;-74
2023/09/24 05:19:42;;;;;;;;;;;;;;;8.85;100.00;97397.16;5104454;28;19949;-74
2023/09/24 05:22:08;;;;;;;;;;;;;;;8.80;100.00;97400.34;5104323;28;19953;-74
2023/09/24 05:24:34;;;;;;;;;;;;;;;8.77;100.00;97402.50;5105243;28;19977;-74
2023/09/24 05:27:00;;;;;;;;;;;;;;;8.74;100.00;97401.88;5104398;28;20229;-74
2023/09/24 05:29:26;;;;;;;;;;;;;;;8.71;100.00;97412.72;5104375;28;19928;-77
2023/09/24 05:31:51;;;;;;;;;;;;;;;8.68;100.00;97407.03;5105151;28;20226;-69
2023/09/24 05:34:17;;;;;;;;;;;;;;;8.68;100.00;97414.88;5103181;28;19973;-71
2023/09/24 05:36:43;;;;;;;;;;;;;;;8.65;100.00;97410.81;5104802;28;19939;-71
2023/09/24 05:39:09;;;;;;;;;;;;;;;8.63;100.00;97412.81;5104274;28;19932;-71
2023/09/24 05:41:35;;;;;;;;;;;;;;;8.61;100.00;97409.56;5104801;28;19943;-71
2023/09/24 05:44:04;;;;;;;;;;;;;;;8.62;100.00;97415.59;5104195;28;20178;-70
2023/09/24 05:46:30;;;;;;;;;;;;;;;8.63;100.00;97414.59;5104176;28;20243;-70
2023/09/24 05:48:58;;;;;;;;;;;;;;;8.75;100.00;97410.53;5105014;28;19933;-69
2023/09/24 05:51:24;;;;;;;;;;;;;;;9.03;100.00;97408.06;5104198;28;19939;-69
2023/09/24 05:53:52;;;;;;;;;;;;;;;9.39;100.00;97407.22;5104109;28;19941;-69
2023/09/24 05:56:18;;;;;;;;;;;;;;;9.75;100.00;97399.28;5104100;28;20228;-70
2023/09/24 05:58:44;;;;;;;;;;;;;;;10.08;100.00;97385.63;5104110;28;19938;-69
2023/09/24 06:01:16;;;;;;;;;;;;;;;10.43;100.00;97390.91;5104012;28;19947;-69
2023/09/24 06:03:42;;;;;;;;;;;;;;;10.74;100.00;97379.97;5103980;28;19954;-69
2023/09/24 06:06:11;;;;;;;;;;;;;;;11.01;100.00;97382.69;5104026;28;19932;-69
2023/09/24 06:08:37;;;;;;;;;;;;;;;11.26;100.00;97369.03;5102989;28;19938;-69
2023/09/24 06:11:03;;;;;;;;;;;;;;;11.43;100.00;97374.72;5104536;28;20097;-72
2023/09/24 06:13:29;;;;;;;;;;;;;;;11.54;100.00;97371.47;5104470;28;19940;-72
2023/09/24 06:15:59;;;;;;;;;;;;;;;11.67;100.00;97366.22;5106378;28;20267;-73
2023/09/24 06:18:25;;;;;;;;;;;;;;;11.77;100.00;97373.72;5107038;28;19955;-73
2023/09/24 06:20:51;;;;;;;;;;;;;;;11.86;100.00;97377.75;5107355;28;20263;-72
2023/09/24 06:23:17;;;;;;;;;;;;;;;11.99;100.00;97379.63;5106577;28;20002;-72
2023/09/24 06:25:43;;;;;;;;;;;;;;;12.12;100.00;97386.69;5107663;28;19948;-74
2023/09/24 06:28:09;;;;;;;;;;;;;;;12.22;100.00;97384.44;5107598;28;19941;-71
2023/09/24 06:30:40;;;;;;;;;;;;;;;12.27;100.00;97371.47;5107513;28;19936;-71
2023/09/24 06:33:06;;;;;;;;;;;;;;;12.25;100.00;97378.75;5108298;28;19930;-71
2023/09/24 06:35:37;;;;;;;;;;;;;;;12.20;100.00;97391.72;5107709;28;20114;-71
2023/09/24 06:38:02;;;;;;;;;;;;;;;12.08;100.00;97388.91;5108238;28;19936;-70
2023/09/24 06:40:29;;;;;;;;;;;;;;;11.93;100.00;97390.94;5107374;28;19935;-71
2023/09/24 06:42:55;;;;;;;;;;;;;;;11.76;100.00;97401.03;5108022;28;19951;-71
2023/09/24 06:45:21;;;;;;;;;;;;;;;11.72;100.00;97402.44;5107587;28;19937;-69
2023/09/24 06:47:47;;;;;;;;;;;;;;;11.80;100.00;97410.13;5107225;28;19931;-70
2023/09/24 06:50:12;;;;;;;;;;;;;;;11.94;100.00;97401.22;5107183;28;20229;-69
2023/09/24 06:52:39;;;;;;;;;;;;;;;12.12;100.00;97400.63;5107081;28;20003;-70
2023/09/24 06:55:06;;;;;;;;;;;;;;;12.19;100.00;97390.09;5107557;28;20115;-69
2023/09/24 06:57:32;;;;;;;;;;;;;;;12.17;100.00;97397.38;5107804;28;19940;-69
2023/09/24 06:59:58;;;;;;;;;;;;;;;12.10;100.00;97400.03;5106969;28;19998;-70
2023/09/24 07:02:24;;;;;;;;;;;;;;;12.03;100.00;97408.91;5107669;28;19956;-69
2023/09/24 07:04:50;;;;;;;;;;;;;;;11.94;100.00;97417.00;5107699;28;19934;-70
2023/09/24 07:07:16;;;;;;;;;;;;;;;11.90;100.00;97421.03;5105751;28;20233;-70
2023/09/24 07:09:41;;;;;;;;;;;;;;;11.97;100.00;97421.88;5107317;28;19946;-70
2023/09/24 07:12:07;;;;;;;;;;;;;;;12.11;100.00;97422.66;5106739;28;20013;-70
2023/09/24 07:14:33;;;;;;;;;;;;;;;12.23;100.00;97417.59;5106533;28;19942;-70
2023/09/24 07:16:59;;;;;;;;;;;;;;;12.30;100.00;97422.84;5107436;28;19937;-69
2023/09/24 07:19:25;;;;;;;;;;;;;;;12.39;100.00;97421.63;5106582;28;19934;-73
2023/09/24 07:21:52;;;;;;;;;;;;;;;12.51;100.00;97419.97;5106561;28;20280;-76
2023/09/24 07:24:18;;;;;;;;;;;;;;;12.57;100.00;97423.59;5106967;28;19951;-72
2023/09/24 07:26:44;;;;;;;;;;;;;;;12.64;100.00;97421.78;5105989;28;19945;-73
2023/09/24 07:29:10;;;;;;;;;;;;;;;12.63;100.00;97428.06;5106395;28;20216;-73
2023/09/24 07:31:35;;;;;;;;;;;;;;;12.68;100.00;97420.38;5107120;28;19940;-73
2023/09/24 07:34:02;;;;;;;;;;;;;;;12.79;100.00;97424.97;5106247;28;19986;-72
2023/09/24 07:36:28;;;;;;;;;;;;;;;12.91;100.00;97416.41;5106506;28;19935;-72
2023/09/24 07:38:54;;;;;;;;;;;;;;;12.87;100.00;97420.47;5106296;28;19940;-69
2023/09/24 07:41:21;;;;;;;;;;;;;;;12.92;100.00;97420.69;5106671;28;19935;-73
2023/09/24 07:43:46;;;;;;;;;;;;;;;13.00;100.00;97425.72;5106134;28;19953;-73
2023/09/24 07:46:14;;;;;;;;;;;;;;;13.09;100.00;97424.44;5106840;28;19932;-72
2023/09/24 07:48:47;;;;;;;;;;;;;;;13.21;100.00;97424.59;5106285;28;19938;-73
2023/09/24 07:51:16;;;;;;;;;;;;;;;13.28;100.00;97428.00;5105919;28;19956;-73
2023/09/24 07:53:42;;;;;;;;;;;;;;;13.35;100.00;97431.44;5105954;28;19938;-73
2023/09/24 07:56:10;;;;;;;;;;;;;;;13.46;100.00;97422.06;5105883;28;20224;-70
2023/09/24 07:58:37;;;;;;;;;;;;;;;13.57;100.00;97418.75;5106630;28;19932;-70
2023/09/24 08:01:04;;;;;;;;;;;;;;;13.64;100.00;97412.63;5105253;28;19937;-69
2023/09/24 08:03:30;;;;;;;;;;;;;;;13.64;100.00;97404.72;5105909;28;20139;-69
2023/09/24 08:05:56;;;;;;;;;;;;;;;13.60;100.00;97420.94;5105660;28;19934;-70
2023/09/24 08:08:23;;;;;;;;;;;;;;;13.66;100.00;97411.38;5105593;28;20102;-69
2023/09/24 08:10:50;;;;;;;;;;;;;;;13.70;100.00;97427.59;5106435;28;19941;-69
2023/09/24 08:13:16;;;;;;;;;;;;;;;13.75;100.00;97420.66;5106063;28;19940;-69
2023/09/24 08:15:42;;;;;;;;;;;;;;;13.90;100.00;97416.88;5105357;28;20284;-70
2023/09/24 08:18:08;;;;;;;;;;;;;;;13.89;100.00;97424.00;5106067;28;19937;-79
2023/09/24 08:20:37;;;;;;;;;;;;;;;13.85;100.00;97425.44;5105515;28;19942;-79
2023/09/24 08:23:03;;;;;;;;;;;;;;;13.91;100.00;97421.94;5105037;28;19959;-79
2023/09/24 08:25:30;;;;;;;;;;;;;;;13.94;100.00;97415.44;5106136;28;19945;-79
2023/09/24 08:27:56;;;;;;;;;;;;;;;13.95;100.00;97415.22;5105051;28;20002;-79
2023/09/24 08:30:21;;;;;;;;;;;;;;;13.96;100.00;97416.84;5105521;28;19936;-79
2023/09/24 08:32:47;;;;;;;;;;;;;;;13.98;100.00;97421.91;5106001;28;19930;-70
2023/09/24 08:35:13;;;;;;;;;;;;;;;14.00;100.00;97419.84;5105363;28;19951;-71
2023/09/24 08:37:39;;;;;;;;;;;;;;;14.02;100.00;97426.53;5104390;28;19928;-69
2023/09/24 08:40:06;;;;;;;;;;;;;;;14.02;100.00;97423.06;5104278;28;20215;-69
2023/09/24 08:42:32;;;;;;;;;;;;;;;13.99;100.00;97426.97;5105516;28;19936;-69
2023/09/24 08:45:09;;;;;;;;;;;;;;;14.02;100.00;97426.53;5105515;28;20106;-69
2023/09/24 08:47:36;;;;;;;;;;;;;;;14.07;100.00;97422.44;5105844;28;19940;-69
2023/09/24 08:50:03;;;;;;;;;;;;;;;14.11;100.00;97432.34;5105450;28;19936;-69
2023/09/24 08:52:31;;;;;;;;;;;;;;;14.15;100.00;97432.72;5105447;28;19956;-70
2023/09/24 08:54:59;;;;;;;;;;;;;;;14.24;100.00;97426.16;5104580;28;20113;-69
2023/09/24 08:57:25;;;;;;;;;;;;;;;14.30;100.00;97432.38;5105369;28;19943;-69
2023/09/24 08:59:51;;;;;;;;;;;;;;;14.41;100.00;97431.69;5105587;28;19941;-69
2023/09/24 09:02:17;;;;;;;;;;;;;;;14.51;100.00;97421.44;5104755;28;19927;-69
2023/09/24 09:04:50;;;;;;;;;;;;;;;14.60;100.00;97421.97;5105443;28;20115;-69
2023/09/24 09:07:16;;;;;;;;;;;;;;;14.67;100.00;97404.22;5104672;28;19946;-69
2023/09/24 09:09:53;;;;;;;;;;;;;;;14.74;100.00;97399.69;5105136;28;19934;-79
2023/09/24 09:12:19;;;;;;;;;;;;;;;14.82;100.00;97406.47;5104246;28;19937;-70
2023/09/24 09:14:45;;;;;;;;;;;;;;;14.90;100.00;97408.03;5104332;28;19938;-70
2023/09/24 09:17:11;;;;;;;;;;;;;;;14.96;100.00;97384.19;5105039;28;20281;-69
2023/09/24 09:19:52;;;;;;;;;;;;;;;15.05;100.00;97389.16;5104466;28;19940;-70
2023/09/24 09:22:19;;;;;;;;;;;;;;;15.10;100.00;97399.84;5104455;28;19938;-70
2023/09/24 09:24:46;;;;;;;;;;;;;;;15.12;100.00;97387.22;5105206;28;20102;-70
2023/09/24 09:27:12;;;;;;;;;;;;;;;15.15;100.00;97381.50;5104400;28;20029;-70
2023/09/24 09:29:37;;;;;;;;;;;;;;;15.18;100.00;97383.69;5086552;28;20226;-71
2023/09/24 09:32:03;;;;;;;;;;;;;;;15.14;100.00;97383.34;5105241;28;19936;-71
2023/09/24 09:34:29;;;;;;;;;;;;;;;15.19;100.00;97380.03;5105150;28;19956;-71
2023/09/24 09:37:15;;;;;;;;;;;;;;;15.25;100.00;97383.63;5104380;28;19932;-71
2023/09/24 09:39:41;;;;;;;;;;;;;;;15.32;100.00;97381.69;5104341;28;20133;-71
2023/09/24 09:42:07;;;;;;;;;;;;;;;15.36;100.00;97366.97;5105172;28;19934;-71
2023/09/24 09:44:33;;;;;;;;;;;;;;;15.38;98.26;97338.50;5104224;28;19959;-71
2023/09/24 09:47:01;;;;;;;;;;;;;;;15.39;100.00;97367.34;5104291;28;20107;-79
2023/09/24 09:49:29;;;;;;;;;;;;;;;15.42;100.00;97360.78;5106624;28;20214;-78
2023/09/24 09:51:57;;;;;;;;;;;;;;;15.45;99.48;97348.97;5107216;28;19939;-69
2023/09/24 09:54:24;;;;;;;;;;;;;;;15.48;100.00;97383.69;5108320;28;19932;-69
2023/09/24 09:56:50;;;;;;;;;;;;;;;15.53;100.00;97377.72;5108340;28;19934;-69
2023/09/24 09:59:17;;;;;;;;;;;;;;;15.53;100.00;97365.28;5108275;28;19941;-69
2023/09/24 10:01:43;;;;;;;;;;;;;;;15.51;100.00;97355.97;5107678;28;20245;-69
2023/09/24 10:04:09;;;;;;;;;;;;;;;15.50;99.10;97352.53;5108067;28;19952;-69
2023/09/24 10:06:37;;;;;;;;;;;;;;;15.53;100.00;97364.50;5108925;28;19982;-71
2023/09/24 10:09:22;;;;;;;;;;;;;;;15.56;98.07;97343.72;5108899;28;19929;-71
2023/09/24 10:11:51;;;;;;;;;;;;;;;15.61;88.65;97271.63;5108619;28;19946;-70
2023/09/24 10:14:30;;;;;;;;;;;;;;;15.64;96.19;97334.63;5108496;28;19934;-71
2023/09/24 10:16:56;;;;;;;;;;;;;;;15.59;91.06;97293.00;5107837;28;19968;-71
2023/09/24 10:19:22;;;;;;;;;;;;;;;15.66;96.28;97337.84;5108032;28;19965;-70
2023/09/24 10:21:47;;;;;;;;;;;;;;;15.71;90.12;97303.59;5107820;28;19943;-71
2023/09/24 10:24:13;;;;;;;;;;;;;;;15.80;90.14;97298.78;5108286;28;19959;-70
2023/09/24 10:26:47;;;;;;;;;;;;;;;15.89;92.80;97312.47;5107789;28;19950;-71
2023/09/24 10:29:15;;;;;;;;;;;;;;;15.98;89.92;97297.84;5107660;28;19946;-70
2023/09/24 10:31:59;;;;;;;;;;;;;;;16.06;85.63;97272.91;5106830;28;19945;-71
2023/09/24 10:34:25;;;;;;;;;;;;;;;16.11;84.39;97262.44;5108083;28;19952;-71
2023/09/24 10:37:09;;;;;;;;;;;;;;;16.12;83.21;97270.13;5108097;28;19934;-71
2023/09/24 10:39:55;;;;;;;;;;;;;;;15.97;82.51;97363.19;5108323;28;19935;-71
2023/09/24 10:42:21;;;;;;;;;;;;;;;16.01;83.60;97368.84;5107393;28;20135;-70
2023/09/24 10:44:46;;;;;;;;;;;;;;;16.06;86.78;97373.44;5108174;28;19954;-77
2023/09/24 10:47:25;;;;;;;;;;;;;;;15.98;77.36;97335.72;5107864;28;19972;-70
2023/09/24 10:50:02;;;;;;;;;;;;;;;15.98;79.44;97354.25;5107291;28;20120;-70
2023/09/24 10:52:29;;;;;;;;;;;;;;;15.94;86.12;97371.59;5106068;28;19940;-71
2023/09/24 10:54:55;;;;;;;;;;;;;;;15.89;86.07;97376.75;5107161;28;19936;-71
2023/09/24 10:57:24;;;;;;;;;;;;;;;15.85;87.31;97375.59;5107138;28;19941;-71
2023/09/24 10:59:50;;;;;;;;;;;;;;;15.85;86.31;97375.59;5106900;28;20220;-71
2023/09/24 11:02:16;;;;;;;;;;;;;;;15.89;87.50;97374.13;5106388;28;20144;-70
2023/09/24 11:04:42;;;;;;;;;;;;;;;15.86;87.07;97371.94;5106404;28;19956;-70
2023/09/24 11:07:08;;;;;;;;;;;;;;;15.75;87.25;97378.84;5106897;28;19984;-70
2023/09/24 11:09:34;;;;;;;;;;;;;;;15.82;91.20;97397.25;5106895;28;19944;-70
2023/09/24 11:12:01;;;;;;;;;;;;;;;16.12;90.51;97389.19;5106821;28;19937;-70
2023/09/24 11:14:26;;;;;;;;;;;;;;;16.46;87.97;97376.16;5106461;28;19958;-70
2023/09/24 11:16:53;;;;;;;;;;;;;;;16.78;86.65;97363.34;5106685;28;20285;-70
2023/09/24 11:19:38;;;;;;;;;;;;;;;17.10;77.56;97339.06;5107090;28;19947;-72
2023/09/24 11:22:20;;;;;;;;;;;;;;;17.32;80.99;97356.94;5106660;28;19938;-70
2023/09/24 11:25:03;;;;;;;;;;;;;;;17.50;76.70;97355.94;5107083;28;19950;-69
2023/09/24 11:27:29;;;;;;;;;;;;;;;17.56;76.36;97339.06;5106104;28;19940;-70
2023/09/24 11:29:55;;;;;;;;;;;;;;;17.42;78.73;97357.09;5107027;28;19936;-70
2023/09/24 11:32:25;;;;;;;;;;;;;;;17.24;72.61;97335.06;5106440;28;20238;-70
2023/09/24 11:35:07;;;;;;;;;;;;;;;17.15;75.36;97346.28;5106681;28;19952;-70
2023/09/24 11:37:47;;;;;;;;;;;;;;;17.26;74.09;97340.16;5106349;28;19954;-70
2023/09/24 11:40:23;;;;;;;;;;;;;;;17.32;78.54;97349.78;5106315;28;19950;-76
2023/09/24 11:43:06;;;;;;;;;;;;;;;17.37;76.67;97338.47;5106272;28;20254;-77
2023/09/24 11:45:53;;;;;;;;;;;;;;;17.49;73.36;97327.78;5106205;28;19938;-77
2023/09/24 11:48:19;;;;;;;;;;;;;;;17.59;70.77;97326.09;5106183;28;19944;-77
2023/09/24 11:50:46;;;;;;;;;;;;;;;17.76;78.40;97335.91;5106387;28;19945;-77
2023/09/24 11:53:13;;;;;;;;;;;;;;;17.71;80.26;97347.25;5106024;28;19942;-77
2023/09/24 11:55:40;;;;;;;;;;;;;;;17.53;74.19;97323.59;5106038;28;19945;-69
2023/09/24 11:58:07;;;;;;;;;;;;;;;17.47;75.99;97329.88;5106555;28;20233;-71
2023/09/24 12:00:37;;;;;;;;;;;;;;;17.59;71.22;97309.38;5106699;28;19938;-71
2023/09/24 12:03:04;;;;;;;;;;;;;;;17.58;78.69;97327.16;5106307;28;19936;-71
2023/09/24 12:05:39;;;;;;;;;;;;;;;17.64;70.02;97304.97;5105809;28;19939;-70
2023/09/24 12:08:05;;;;;;;;;;;;;;;17.65;73.04;97311.06;5105755;28;19939;-71
2023/09/24 12:10:38;;;;;;;;;;;;;;;17.61;71.28;97316.03;5105725;28;19932;-71
2023/09/24 12:13:04;;;;;;;;;;;;;;;17.70;74.17;97321.78;5105622;28;20227;-71
2023/09/24 12:15:31;;;;;;;;;;;;;;;17.80;71.04;97313.16;5105928;28;19967;-72
2023/09/24 12:17:58;;;;;;;;;;;;;;;17.80;70.23;97319.25;5106134;28;19942;-70
2023/09/24 12:20:27;;;;;;;;;;;;;;;17.70;72.73;97320.94;5105499;28;19940;-70
2023/09/24 12:22:54;;;;;;;;;;;;;;;17.72;75.79;97321.50;5105494;28;19945;-71
2023/09/24 12:25:20;;;;;;;;;;;;;;;17.89;73.84;97311.75;5106163;28;20128;-71
2023/09/24 12:27:46;;;;;;;;;;;;;;;18.09;74.23;97319.16;5105420;28;19941;-70
2023/09/24 12:30:12;;;;;;;;;;;;;;;18.18;71.38;97308.94;5106133;28;19935;-71
2023/09/24 12:32:39;;;;;;;;;;;;;;;18.28;66.51;97302.97;5106100;28;19962;-70
2023/09/24 12:35:07;;;;;;;;;;;;;;;18.37;68.72;97299.66;5105437;28;19945;-70
2023/09/24 12:37:34;;;;;;;;;;;;;;;18.31;67.69;97297.16;5105194;28;19940;-70
2023/09/24 12:40:00;;;;;;;;;;;;;;;18.12;73.47;97305.44;5105698;28;19936;-70
2023/09/24 12:42:30;;;;;;;;;;;;;;;17.98;68.79;97293.56;5105626;28;19936;-70
2023/09/24 12:45:00;;;;;;;;;;;;;;;18.15;73.88;97307.56;5105220;28;19960;-70